sensor_id;sensor_type;location;lat;lon;timestamp;temperature;humidity
53422;DHT22;39319;52.944;5.928;2022-12-18T00:01:41;-0.30;99.90
53422;DHT22;39319;52.944;5.928;2022-12-18T00:04:16;0.60;99.90
53422;DHT22;39319;52.944;5.928;2022-12-18T00:06:44;-0.30;99.90
53422;DHT22;39319;52.944;5.928;2022-12-18T00:09:10;0.10;99.90
53422;DHT22;39319;52.944;5.928;2022-12-18T00:11:35;-0.30;99.90
53422;DHT22;39319;52.944;5.928;2022-12-18T00:14:01;-0.20;99.90
53422;DHT22;39319;52.944;5.928;2022-12-18T00:16:28;-0.10;99.90
53422;DHT22;39319;52.944;5.928;2022-12-18T00:18:56;0.40;99.90
53422;DHT22;39319;52.944;5.928;2022-12-18T00:21:25;0.00;99.90
53422;DHT22;39319;52.944;5.928;2022-12-18T00:23:51;-0.20;99.90
53422;DHT22;39319;52.944;5.928;2022-12-18T00:26:20;-0.10;99.90
53422;DHT22;39319;52.944;5.928;2022-12-18T00:28:46;-0.60;99.90
53422;DHT22;39319;52.944;5.928;2022-12-18T00:31:23;-0.40;99.90
53422;DHT22;39319;52.944;5.928;2022-12-18T00:33:50;0.30;99.90
53422;DHT22;39319;52.944;5.928;2022-12-18T00:36:21;-0.30;99.90
53422;DHT22;39319;52.944;5.928;2022-12-18T00:38:47;-0.50;99.90
53422;DHT22;39319;52.944;5.928;2022-12-18T00:41:15;-0.30;99.90
53422;DHT22;39319;52.944;5.928;2022-12-18T00:44:05;-0.40;99.90
53422;DHT22;39319;52.944;5.928;2022-12-18T00:46:31;-0.40;99.90
53422;DHT22;39319;52.944;5.928;2022-12-18T00:48:57;-0.80;99.90
53422;DHT22;39319;52.944;5.928;2022-12-18T00:51:24;-0.40;99.90
53422;DHT22;39319;52.944;5.928;2022-12-18T00:53:50;-0.40;99.90
53422;DHT22;39319;52.944;5.928;2022-12-18T00:56:16;-0.70;99.90
53422;DHT22;39319;52.944;5.928;2022-12-18T00:58:42;0.50;99.90
53422;DHT22;39319;52.944;5.928;2022-12-18T01:01:07;-0.30;99.90
53422;DHT22;39319;52.944;5.928;2022-12-18T01:03:37;-0.70;99.90
53422;DHT22;39319;52.944;5.928;2022-12-18T01:06:11;-0.40;99.90
53422;DHT22;39319;52.944;5.928;2022-12-18T01:08:38;-0.70;99.90
53422;DHT22;39319;52.944;5.928;2022-12-18T01:11:08;-0.70;99.90
53422;DHT22;39319;52.944;5.928;2022-12-18T01:13:35;-0.50;99.90
53422;DHT22;39319;52.944;5.928;2022-12-18T01:16:01;-0.40;99.90
53422;DHT22;39319;52.944;5.928;2022-12-18T01:18:26;-0.70;99.90
53422;DHT22;39319;52.944;5.928;2022-12-18T01:20:54;-0.90;99.90
53422;DHT22;39319;52.944;5.928;2022-12-18T01:23:20;-0.50;99.90
53422;DHT22;39319;52.944;5.928;2022-12-18T01:25:46;1.00;99.90
53422;DHT22;39319;52.944;5.928;2022-12-18T01:28:11;-0.60;99.90
53422;DHT22;39319;52.944;5.928;2022-12-18T01:30:37;-0.70;99.90
53422;DHT22;39319;52.944;5.928;2022-12-18T01:33:06;-1.00;99.90
53422;DHT22;39319;52.944;5.928;2022-12-18T01:35:32;-0.70;99.90
53422;DHT22;39319;52.944;5.928;2022-12-18T01:37:58;1.50;99.90
53422;DHT22;39319;52.944;5.928;2022-12-18T01:40:24;0.00;99.90
53422;DHT22;39319;52.944;5.928;2022-12-18T01:42:53;-0.90;99.90
53422;DHT22;39319;52.944;5.928;2022-12-18T01:45:23;-0.10;99.90
53422;DHT22;39319;52.944;5.928;2022-12-18T01:47:53;-1.10;99.90
53422;DHT22;39319;52.944;5.928;2022-12-18T01:50:37;-0.10;99.90
53422;DHT22;39319;52.944;5.928;2022-12-18T01:53:17;-0.80;99.90
53422;DHT22;39319;52.944;5.928;2022-12-18T01:55:49;-0.70;99.90
53422;DHT22;39319;52.944;5.928;2022-12-18T01:58:16;-0.90;99.90
53422;DHT22;39319;52.944;5.928;2022-12-18T02:00:42;-1.00;99.90
53422;DHT22;39319;52.944;5.928;2022-12-18T02:03:08;-1.10;99.90
53422;DHT22;39319;52.944;5.928;2022-12-18T02:06:24;0.10;99.90
53422;DHT22;39319;52.944;5.928;2022-12-18T02:09:19;-1.00;99.90
53422;DHT22;39319;52.944;5.928;2022-12-18T02:11:50;-0.80;99.90
53422;DHT22;39319;52.944;5.928;2022-12-18T02:17:17;-0.90;99.90
53422;DHT22;39319;52.944;5.928;2022-12-18T02:20:21;-1.00;99.90
53422;DHT22;39319;52.944;5.928;2022-12-18T02:27:51;-1.30;99.90
53422;DHT22;39319;52.944;5.928;2022-12-18T02:30:18;-1.10;99.90
53422;DHT22;39319;52.944;5.928;2022-12-18T02:32:49;-1.30;99.90
53422;DHT22;39319;52.944;5.928;2022-12-18T02:35:23;0.00;99.90
53422;DHT22;39319;52.944;5.928;2022-12-18T02:37:53;-1.40;99.90
53422;DHT22;39319;52.944;5.928;2022-12-18T02:40:22;-1.00;99.90
53422;DHT22;39319;52.944;5.928;2022-12-18T02:42:49;-1.00;99.90
53422;DHT22;39319;52.944;5.928;2022-12-18T02:45:15;-1.40;99.90
53422;DHT22;39319;52.944;5.928;2022-12-18T02:47:43;0.50;99.90
53422;DHT22;39319;52.944;5.928;2022-12-18T02:56:07;-1.10;99.90
53422;DHT22;39319;52.944;5.928;2022-12-18T02:58:58;-1.20;99.90
53422;DHT22;39319;52.944;5.928;2022-12-18T03:01:33;-1.20;99.90
53422;DHT22;39319;52.944;5.928;2022-12-18T03:04:11;-1.30;99.90
53422;DHT22;39319;52.944;5.928;2022-12-18T03:06:50;-1.10;99.90
53422;DHT22;39319;52.944;5.928;2022-12-18T03:09:22;-1.30;99.90
53422;DHT22;39319;52.944;5.928;2022-12-18T03:11:58;-1.10;99.90
53422;DHT22;39319;52.944;5.928;2022-12-18T03:17:22;-1.10;99.90
53422;DHT22;39319;52.944;5.928;2022-12-18T03:19:49;-1.10;99.90
53422;DHT22;39319;52.944;5.928;2022-12-18T03:22:18;-1.20;99.90
53422;DHT22;39319;52.944;5.928;2022-12-18T03:24:46;-1.30;99.90
53422;DHT22;39319;52.944;5.928;2022-12-18T03:27:18;-1.40;99.90
53422;DHT22;39319;52.944;5.928;2022-12-18T03:29:50;-1.30;99.90
53422;DHT22;39319;52.944;5.928;2022-12-18T03:32:26;-1.50;99.90
53422;DHT22;39319;52.944;5.928;2022-12-18T03:34:56;-1.70;99.90
53422;DHT22;39319;52.944;5.928;2022-12-18T03:37:23;-1.40;99.90
53422;DHT22;39319;52.944;5.928;2022-12-18T03:39:52;-1.80;99.90
53422;DHT22;39319;52.944;5.928;2022-12-18T03:42:28;-1.60;99.90
53422;DHT22;39319;52.944;5.928;2022-12-18T03:45:09;-1.40;99.90
53422;DHT22;39319;52.944;5.928;2022-12-18T03:47:47;-1.70;99.90
53422;DHT22;39319;52.944;5.928;2022-12-18T03:50:19;-1.50;99.90
53422;DHT22;39319;52.944;5.928;2022-12-18T03:53:27;-1.30;99.90
53422;DHT22;39319;52.944;5.928;2022-12-18T03:55:55;-1.50;99.90
53422;DHT22;39319;52.944;5.928;2022-12-18T03:58:24;-2.00;99.90
53422;DHT22;39319;52.944;5.928;2022-12-18T04:00:53;-1.30;99.90
53422;DHT22;39319;52.944;5.928;2022-12-18T04:03:24;-1.90;99.90
53422;DHT22;39319;52.944;5.928;2022-12-18T04:05:54;-1.90;99.90
53422;DHT22;39319;52.944;5.928;2022-12-18T04:08:21;-1.70;99.90
53422;DHT22;39319;52.944;5.928;2022-12-18T04:10:50;-1.80;99.90
53422;DHT22;39319;52.944;5.928;2022-12-18T04:13:24;-1.90;99.90
53422;DHT22;39319;52.944;5.928;2022-12-18T04:15:50;-2.10;99.90
53422;DHT22;39319;52.944;5.928;2022-12-18T04:18:16;-2.00;99.90
53422;DHT22;39319;52.944;5.928;2022-12-18T04:20:42;-2.20;99.90
53422;DHT22;39319;52.944;5.928;2022-12-18T04:23:08;-2.40;99.90
53422;DHT22;39319;52.944;5.928;2022-12-18T04:25:35;-2.20;99.90
53422;DHT22;39319;52.944;5.928;2022-12-18T04:28:00;-2.10;99.90
53422;DHT22;39319;52.944;5.928;2022-12-18T04:30:26;-2.20;99.90
53422;DHT22;39319;52.944;5.928;2022-12-18T04:32:52;-2.20;99.90
53422;DHT22;39319;52.944;5.928;2022-12-18T04:35:19;-2.20;99.90
53422;DHT22;39319;52.944;5.928;2022-12-18T04:37:44;-2.30;99.90
53422;DHT22;39319;52.944;5.928;2022-12-18T04:40:13;-2.30;99.80
53422;DHT22;39319;52.944;5.928;2022-12-18T04:42:40;-2.10;99.80
53422;DHT22;39319;52.944;5.928;2022-12-18T04:45:06;-2.40;99.90
53422;DHT22;39319;52.944;5.928;2022-12-18T04:47:33;-2.30;99.80
53422;DHT22;39319;52.944;5.928;2022-12-18T04:49:59;-2.30;99.70
53422;DHT22;39319;52.944;5.928;2022-12-18T04:52:25;-2.30;99.60
53422;DHT22;39319;52.944;5.928;2022-12-18T04:54:51;-2.30;99.60
53422;DHT22;39319;52.944;5.928;2022-12-18T04:57:16;-2.40;99.60
53422;DHT22;39319;52.944;5.928;2022-12-18T04:59:43;-2.60;99.90
53422;DHT22;39319;52.944;5.928;2022-12-18T05:02:10;-2.50;99.50
53422;DHT22;39319;52.944;5.928;2022-12-18T05:04:36;-2.60;99.30
53422;DHT22;39319;52.944;5.928;2022-12-18T05:07:01;-2.00;99.50
53422;DHT22;39319;52.944;5.928;2022-12-18T05:09:27;-2.70;99.30
53422;DHT22;39319;52.944;5.928;2022-12-18T05:11:53;-2.70;99.90
53422;DHT22;39319;52.944;5.928;2022-12-18T05:14:19;-2.70;99.40
53422;DHT22;39319;52.944;5.928;2022-12-18T05:16:45;-2.60;99.20
53422;DHT22;39319;52.944;5.928;2022-12-18T05:19:10;-2.60;99.10
53422;DHT22;39319;52.944;5.928;2022-12-18T05:21:36;-2.30;99.30
53422;DHT22;39319;52.944;5.928;2022-12-18T05:24:02;-2.70;99.70
53422;DHT22;39319;52.944;5.928;2022-12-18T05:26:28;-3.00;99.10
53422;DHT22;39319;52.944;5.928;2022-12-18T05:28:57;-1.80;99.30
53422;DHT22;39319;52.944;5.928;2022-12-18T05:31:22;-2.80;99.20
53422;DHT22;39319;52.944;5.928;2022-12-18T05:33:48;-2.80;99.70
53422;DHT22;39319;52.944;5.928;2022-12-18T05:36:14;-2.80;99.30
53422;DHT22;39319;52.944;5.928;2022-12-18T05:38:40;-2.80;99.00
53422;DHT22;39319;52.944;5.928;2022-12-18T05:41:07;-3.10;98.90
53422;DHT22;39319;52.944;5.928;2022-12-18T05:43:35;-2.60;98.90
53422;DHT22;39319;52.944;5.928;2022-12-18T05:46:13;-3.00;99.30
53422;DHT22;39319;52.944;5.928;2022-12-18T05:48:39;-2.60;99.00
53422;DHT22;39319;52.944;5.928;2022-12-18T05:51:10;-2.80;98.90
53422;DHT22;39319;52.944;5.928;2022-12-18T05:53:37;-3.00;99.00
53422;DHT22;39319;52.944;5.928;2022-12-18T05:56:06;-2.90;99.20
53422;DHT22;39319;52.944;5.928;2022-12-18T05:58:35;-2.50;98.80
53422;DHT22;39319;52.944;5.928;2022-12-18T06:01:18;-2.60;98.90
53422;DHT22;39319;52.944;5.928;2022-12-18T06:03:45;-3.60;98.80
53422;DHT22;39319;52.944;5.928;2022-12-18T06:06:19;-3.00;99.00
53422;DHT22;39319;52.944;5.928;2022-12-18T06:08:45;-3.00;98.40
53422;DHT22;39319;52.944;5.928;2022-12-18T06:11:11;-3.30;98.60
53422;DHT22;39319;52.944;5.928;2022-12-18T06:13:38;-3.30;98.60
53422;DHT22;39319;52.944;5.928;2022-12-18T06:16:06;-3.10;99.40
53422;DHT22;39319;52.944;5.928;2022-12-18T06:18:34;-3.10;99.10
53422;DHT22;39319;52.944;5.928;2022-12-18T06:21:00;-3.30;99.00
53422;DHT22;39319;52.944;5.928;2022-12-18T06:23:26;-2.90;99.20
53422;DHT22;39319;52.944;5.928;2022-12-18T06:25:52;-3.60;99.10
53422;DHT22;39319;52.944;5.928;2022-12-18T06:28:18;-3.00;99.00
53422;DHT22;39319;52.944;5.928;2022-12-18T06:30:44;-3.10;98.80
53422;DHT22;39319;52.944;5.928;2022-12-18T06:33:10;-3.30;98.90
53422;DHT22;39319;52.944;5.928;2022-12-18T06:35:36;-2.90;99.00
53422;DHT22;39319;52.944;5.928;2022-12-18T06:38:04;-3.20;99.00
53422;DHT22;39319;52.944;5.928;2022-12-18T06:40:30;-3.70;98.90
53422;DHT22;39319;52.944;5.928;2022-12-18T06:42:56;-3.30;98.90
53422;DHT22;39319;52.944;5.928;2022-12-18T06:45:21;-3.10;99.00
53422;DHT22;39319;52.944;5.928;2022-12-18T06:47:47;-3.30;98.90
53422;DHT22;39319;52.944;5.928;2022-12-18T06:50:14;-3.20;99.10
53422;DHT22;39319;52.944;5.928;2022-12-18T06:52:40;-3.20;99.20
53422;DHT22;39319;52.944;5.928;2022-12-18T06:55:07;-3.00;99.20
53422;DHT22;39319;52.944;5.928;2022-12-18T06:57:34;-3.20;99.00
53422;DHT22;39319;52.944;5.928;2022-12-18T07:00:04;-3.40;98.90
53422;DHT22;39319;52.944;5.928;2022-12-18T07:02:30;-3.10;98.90
53422;DHT22;39319;52.944;5.928;2022-12-18T07:04:56;-3.00;98.90
53422;DHT22;39319;52.944;5.928;2022-12-18T07:07:24;-3.20;98.90
53422;DHT22;39319;52.944;5.928;2022-12-18T07:09:50;-3.10;99.00
53422;DHT22;39319;52.944;5.928;2022-12-18T07:12:17;-2.70;99.00
53422;DHT22;39319;52.944;5.928;2022-12-18T07:14:42;-3.10;98.90
53422;DHT22;39319;52.944;5.928;2022-12-18T07:17:08;-3.10;99.00
53422;DHT22;39319;52.944;5.928;2022-12-18T07:19:34;-3.40;98.70
53422;DHT22;39319;52.944;5.928;2022-12-18T07:22:00;-2.90;98.80
53422;DHT22;39319;52.944;5.928;2022-12-18T07:24:26;-3.20;98.70
53422;DHT22;39319;52.944;5.928;2022-12-18T07:26:52;-3.10;98.80
53422;DHT22;39319;52.944;5.928;2022-12-18T07:29:18;-2.70;98.90
53422;DHT22;39319;52.944;5.928;2022-12-18T07:31:44;-2.90;98.90
53422;DHT22;39319;52.944;5.928;2022-12-18T07:34:11;-2.90;98.80
53422;DHT22;39319;52.944;5.928;2022-12-18T07:36:37;-2.90;98.80
53422;DHT22;39319;52.944;5.928;2022-12-18T07:39:02;-3.00;98.80
53422;DHT22;39319;52.944;5.928;2022-12-18T07:41:28;-2.90;98.70
53422;DHT22;39319;52.944;5.928;2022-12-18T07:43:54;-2.60;99.00
53422;DHT22;39319;52.944;5.928;2022-12-18T07:46:20;-2.80;99.20
53422;DHT22;39319;52.944;5.928;2022-12-18T07:48:46;-2.70;98.80
53422;DHT22;39319;52.944;5.928;2022-12-18T07:51:11;-2.70;98.70
53422;DHT22;39319;52.944;5.928;2022-12-18T07:53:38;-2.90;98.70
53422;DHT22;39319;52.944;5.928;2022-12-18T07:56:07;-2.60;98.90
53422;DHT22;39319;52.944;5.928;2022-12-18T07:58:33;-2.80;99.20
53422;DHT22;39319;52.944;5.928;2022-12-18T08:01:07;-2.90;98.90
53422;DHT22;39319;52.944;5.928;2022-12-18T08:03:34;-2.90;98.80
53422;DHT22;39319;52.944;5.928;2022-12-18T08:06:00;-2.70;98.80
53422;DHT22;39319;52.944;5.928;2022-12-18T08:08:28;-1.20;99.20
53422;DHT22;39319;52.944;5.928;2022-12-18T08:10:54;-2.50;98.90
53422;DHT22;39319;52.944;5.928;2022-12-18T08:13:20;-2.70;99.40
53422;DHT22;39319;52.944;5.928;2022-12-18T08:15:45;-2.60;99.20
53422;DHT22;39319;52.944;5.928;2022-12-18T08:18:11;-2.40;99.00
53422;DHT22;39319;52.944;5.928;2022-12-18T08:20:37;-2.40;99.00
53422;DHT22;39319;52.944;5.928;2022-12-18T08:23:03;-2.80;99.10
53422;DHT22;39319;52.944;5.928;2022-12-18T08:25:29;-2.40;99.30
53422;DHT22;39319;52.944;5.928;2022-12-18T08:27:55;-2.60;99.00
53422;DHT22;39319;52.944;5.928;2022-12-18T08:30:22;-2.20;99.00
53422;DHT22;39319;52.944;5.928;2022-12-18T08:32:51;-2.20;99.10
53422;DHT22;39319;52.944;5.928;2022-12-18T08:35:18;-2.20;99.40
53422;DHT22;39319;52.944;5.928;2022-12-18T08:37:44;-2.30;99.00
53422;DHT22;39319;52.944;5.928;2022-12-18T08:40:10;-2.10;99.10
53422;DHT22;39319;52.944;5.928;2022-12-18T08:42:38;-2.00;99.10
53422;DHT22;39319;52.944;5.928;2022-12-18T08:45:22;-2.00;98.70
53422;DHT22;39319;52.944;5.928;2022-12-18T08:47:48;-1.90;98.90
53422;DHT22;39319;52.944;5.928;2022-12-18T08:50:14;-1.90;99.30
53422;DHT22;39319;52.944;5.928;2022-12-18T08:52:40;-2.00;99.40
53422;DHT22;39319;52.944;5.928;2022-12-18T08:55:06;-1.90;99.30
53422;DHT22;39319;52.944;5.928;2022-12-18T08:57:34;-2.00;99.10
53422;DHT22;39319;52.944;5.928;2022-12-18T09:00:00;-1.70;99.20
53422;DHT22;39319;52.944;5.928;2022-12-18T09:02:25;-1.60;99.20
53422;DHT22;39319;52.944;5.928;2022-12-18T09:04:51;-1.70;99.10
53422;DHT22;39319;52.944;5.928;2022-12-18T09:07:17;-1.90;99.10
53422;DHT22;39319;52.944;5.928;2022-12-18T09:09:44;-1.70;99.10
53422;DHT22;39319;52.944;5.928;2022-12-18T09:12:09;-1.50;99.20
53422;DHT22;39319;52.944;5.928;2022-12-18T09:14:35;-1.70;99.10
53422;DHT22;39319;52.944;5.928;2022-12-18T09:17:01;0.00;99.30
53422;DHT22;39319;52.944;5.928;2022-12-18T09:19:28;-1.30;98.90
53422;DHT22;39319;52.944;5.928;2022-12-18T09:21:53;-1.60;98.70
53422;DHT22;39319;52.944;5.928;2022-12-18T09:24:20;-1.10;98.80
53422;DHT22;39319;52.944;5.928;2022-12-18T09:26:46;-1.10;98.90
53422;DHT22;39319;52.944;5.928;2022-12-18T09:29:11;-1.10;98.80
53422;DHT22;39319;52.944;5.928;2022-12-18T09:31:38;-1.30;98.70
53422;DHT22;39319;52.944;5.928;2022-12-18T09:34:04;0.20;99.10
53422;DHT22;39319;52.944;5.928;2022-12-18T09:36:30;-0.60;99.00
53422;DHT22;39319;52.944;5.928;2022-12-18T09:38:55;0.20;99.00
53422;DHT22;39319;52.944;5.928;2022-12-18T09:41:33;-0.80;98.70
53422;DHT22;39319;52.944;5.928;2022-12-18T09:44:05;-0.80;98.80
53422;DHT22;39319;52.944;5.928;2022-12-18T09:46:45;-0.60;99.00
53422;DHT22;39319;52.944;5.928;2022-12-18T09:49:15;-0.70;98.80
53422;DHT22;39319;52.944;5.928;2022-12-18T09:51:50;-0.40;98.90
53422;DHT22;39319;52.944;5.928;2022-12-18T09:54:32;-0.40;98.80
53422;DHT22;39319;52.944;5.928;2022-12-18T09:56:58;-0.30;98.70
53422;DHT22;39319;52.944;5.928;2022-12-18T09:59:29;-0.40;98.20
53422;DHT22;39319;52.944;5.928;2022-12-18T10:01:56;-0.60;98.00
53422;DHT22;39319;52.944;5.928;2022-12-18T10:04:23;-0.10;98.10
53422;DHT22;39319;52.944;5.928;2022-12-18T10:06:56;-0.30;97.70
53422;DHT22;39319;52.944;5.928;2022-12-18T10:09:39;0.50;97.80
53422;DHT22;39319;52.944;5.928;2022-12-18T10:12:13;-0.30;97.50
53422;DHT22;39319;52.944;5.928;2022-12-18T10:17:42;-0.30;97.70
53422;DHT22;39319;52.944;5.928;2022-12-18T10:20:22;-0.20;97.80
53422;DHT22;39319;52.944;5.928;2022-12-18T10:23:14;-0.20;97.90
53422;DHT22;39319;52.944;5.928;2022-12-18T10:26:11;-0.30;97.80
53422;DHT22;39319;52.944;5.928;2022-12-18T10:28:39;-0.20;97.80
53422;DHT22;39319;52.944;5.928;2022-12-18T10:31:21;-0.60;97.80
53422;DHT22;39319;52.944;5.928;2022-12-18T10:33:47;-0.30;98.00
53422;DHT22;39319;52.944;5.928;2022-12-18T10:36:13;0.00;98.10
53422;DHT22;39319;52.944;5.928;2022-12-18T10:38:41;-0.20;98.00
53422;DHT22;39319;52.944;5.928;2022-12-18T10:44:18;-0.20;98.00
53422;DHT22;39319;52.944;5.928;2022-12-18T10:46:46;-0.20;98.00
53422;DHT22;39319;52.944;5.928;2022-12-18T10:49:41;-0.10;98.00
53422;DHT22;39319;52.944;5.928;2022-12-18T10:52:21;0.20;98.00
53422;DHT22;39319;52.944;5.928;2022-12-18T10:55:02;0.10;97.90
53422;DHT22;39319;52.944;5.928;2022-12-18T10:57:37;-0.20;97.70
53422;DHT22;39319;52.944;5.928;2022-12-18T11:00:27;0.00;97.70
53422;DHT22;39319;52.944;5.928;2022-12-18T11:02:54;-0.10;97.80
53422;DHT22;39319;52.944;5.928;2022-12-18T11:05:30;0.30;97.90
53422;DHT22;39319;52.944;5.928;2022-12-18T11:07:57;0.00;97.50
53422;DHT22;39319;52.944;5.928;2022-12-18T11:10:31;0.00;97.60
53422;DHT22;39319;52.944;5.928;2022-12-18T11:15:36;-0.10;97.60
53422;DHT22;39319;52.944;5.928;2022-12-18T11:18:13;0.20;97.60
53422;DHT22;39319;52.944;5.928;2022-12-18T11:20:40;0.00;97.50
53422;DHT22;39319;52.944;5.928;2022-12-18T11:23:12;0.40;97.80
53422;DHT22;39319;52.944;5.928;2022-12-18T11:25:39;0.80;97.90
53422;DHT22;39319;52.944;5.928;2022-12-18T11:33:41;0.30;97.70
53422;DHT22;39319;52.944;5.928;2022-12-18T11:36:08;0.10;97.70
53422;DHT22;39319;52.944;5.928;2022-12-18T11:38:40;0.40;97.90
53422;DHT22;39319;52.944;5.928;2022-12-18T11:44:35;0.80;97.60
53422;DHT22;39319;52.944;5.928;2022-12-18T11:47:26;0.50;97.40
53422;DHT22;39319;52.944;5.928;2022-12-18T11:49:58;0.50;97.30
53422;DHT22;39319;52.944;5.928;2022-12-18T11:52:36;1.90;97.90
53422;DHT22;39319;52.944;5.928;2022-12-18T11:56:00;0.60;97.30
53422;DHT22;39319;52.944;5.928;2022-12-18T12:01:22;0.60;97.40
53422;DHT22;39319;52.944;5.928;2022-12-18T12:09:41;0.60;97.00
53422;DHT22;39319;52.944;5.928;2022-12-18T12:17:36;0.70;96.90
53422;DHT22;39319;52.944;5.928;2022-12-18T12:20:13;0.90;97.00
53422;DHT22;39319;52.944;5.928;2022-12-18T12:22:55;0.70;96.90
53422;DHT22;39319;52.944;5.928;2022-12-18T12:25:48;0.90;96.80
53422;DHT22;39319;52.944;5.928;2022-12-18T12:31:23;0.80;96.70
53422;DHT22;39319;52.944;5.928;2022-12-18T12:34:14;0.80;96.60
53422;DHT22;39319;52.944;5.928;2022-12-18T12:37:01;0.80;96.80
53422;DHT22;39319;52.944;5.928;2022-12-18T12:39:34;1.30;96.80
53422;DHT22;39319;52.944;5.928;2022-12-18T12:42:02;0.50;96.80
53422;DHT22;39319;52.944;5.928;2022-12-18T12:44:51;1.60;96.90
53422;DHT22;39319;52.944;5.928;2022-12-18T12:47:29;0.90;97.00
53422;DHT22;39319;52.944;5.928;2022-12-18T12:50:02;0.90;96.30
53422;DHT22;39319;52.944;5.928;2022-12-18T12:52:35;0.90;96.30
53422;DHT22;39319;52.944;5.928;2022-12-18T12:55:07;1.10;96.20
53422;DHT22;39319;52.944;5.928;2022-12-18T12:57:40;1.20;96.20
53422;DHT22;39319;52.944;5.928;2022-12-18T13:00:25;1.50;96.30
53422;DHT22;39319;52.944;5.928;2022-12-18T13:05:59;1.00;96.00
53422;DHT22;39319;52.944;5.928;2022-12-18T13:08:29;1.00;96.40
53422;DHT22;39319;52.944;5.928;2022-12-18T13:10:57;1.30;96.50
53422;DHT22;39319;52.944;5.928;2022-12-18T13:13:54;1.10;96.40
53422;DHT22;39319;52.944;5.928;2022-12-18T13:16:23;1.80;96.50
53422;DHT22;39319;52.944;5.928;2022-12-18T13:18:53;1.00;96.10
53422;DHT22;39319;52.944;5.928;2022-12-18T13:21:29;2.00;96.20
53422;DHT22;39319;52.944;5.928;2022-12-18T13:23:55;1.10;96.00
53422;DHT22;39319;52.944;5.928;2022-12-18T13:26:29;1.10;96.00
53422;DHT22;39319;52.944;5.928;2022-12-18T13:28:57;1.70;96.30
53422;DHT22;39319;52.944;5.928;2022-12-18T13:34:20;1.10;96.50
53422;DHT22;39319;52.944;5.928;2022-12-18T13:36:47;1.00;96.50
53422;DHT22;39319;52.944;5.928;2022-12-18T13:41:51;1.00;96.60
53422;DHT22;39319;52.944;5.928;2022-12-18T13:44:39;1.10;96.60
53422;DHT22;39319;52.944;5.928;2022-12-18T13:49:56;1.10;96.20
53422;DHT22;39319;52.944;5.928;2022-12-18T13:52:25;1.10;96.20
53422;DHT22;39319;52.944;5.928;2022-12-18T13:54:54;1.20;96.00
53422;DHT22;39319;52.944;5.928;2022-12-18T13:59:54;1.10;96.10
53422;DHT22;39319;52.944;5.928;2022-12-18T14:02:26;1.10;96.00
53422;DHT22;39319;52.944;5.928;2022-12-18T14:04:52;1.20;96.20
53422;DHT22;39319;52.944;5.928;2022-12-18T14:07:26;1.60;96.30
53422;DHT22;39319;52.944;5.928;2022-12-18T14:09:55;0.80;96.10
53422;DHT22;39319;52.944;5.928;2022-12-18T14:12:32;1.20;96.50
53422;DHT22;39319;52.944;5.928;2022-12-18T14:17:53;1.10;96.70
53422;DHT22;39319;52.944;5.928;2022-12-18T14:20:20;1.10;96.20
53422;DHT22;39319;52.944;5.928;2022-12-18T14:22:48;1.10;96.30
53422;DHT22;39319;52.944;5.928;2022-12-18T14:25:22;1.20;96.50
53422;DHT22;39319;52.944;5.928;2022-12-18T14:28:03;1.20;96.70
53422;DHT22;39319;52.944;5.928;2022-12-18T14:30:37;1.30;96.70
53422;DHT22;39319;52.944;5.928;2022-12-18T14:33:24;1.10;96.70
53422;DHT22;39319;52.944;5.928;2022-12-18T14:36:01;1.00;96.60
53422;DHT22;39319;52.944;5.928;2022-12-18T14:38:32;0.90;96.50
53422;DHT22;39319;52.944;5.928;2022-12-18T14:41:00;0.90;96.50
53422;DHT22;39319;52.944;5.928;2022-12-18T14:43:29;1.00;96.70
53422;DHT22;39319;52.944;5.928;2022-12-18T14:45:56;1.40;96.70
53422;DHT22;39319;52.944;5.928;2022-12-18T14:51:02;1.10;96.60
53422;DHT22;39319;52.944;5.928;2022-12-18T14:53:44;1.00;96.90
53422;DHT22;39319;52.944;5.928;2022-12-18T14:58:57;1.10;96.60
53422;DHT22;39319;52.944;5.928;2022-12-18T15:01:30;1.00;96.60
53422;DHT22;39319;52.944;5.928;2022-12-18T15:03:58;1.10;96.70
53422;DHT22;39319;52.944;5.928;2022-12-18T15:06:28;1.00;96.70
53422;DHT22;39319;52.944;5.928;2022-12-18T15:08:54;0.90;96.70
53422;DHT22;39319;52.944;5.928;2022-12-18T15:11:45;1.00;96.60
53422;DHT22;39319;52.944;5.928;2022-12-18T15:14:40;0.90;96.50
53422;DHT22;39319;52.944;5.928;2022-12-18T15:17:17;1.00;96.50
53422;DHT22;39319;52.944;5.928;2022-12-18T15:19:45;1.20;96.40
53422;DHT22;39319;52.944;5.928;2022-12-18T15:22:34;0.90;96.50
53422;DHT22;39319;52.944;5.928;2022-12-18T15:25:03;1.80;96.60
53422;DHT22;39319;52.944;5.928;2022-12-18T15:27:34;1.10;96.50
53422;DHT22;39319;52.944;5.928;2022-12-18T15:32:34;1.10;96.50
53422;DHT22;39319;52.944;5.928;2022-12-18T15:35:22;1.00;96.50
53422;DHT22;39319;52.944;5.928;2022-12-18T15:37:49;1.00;96.30
53422;DHT22;39319;52.944;5.928;2022-12-18T15:40:23;1.00;96.30
53422;DHT22;39319;52.944;5.928;2022-12-18T15:42:52;0.90;96.20
53422;DHT22;39319;52.944;5.928;2022-12-18T15:45:38;1.00;96.10
53422;DHT22;39319;52.944;5.928;2022-12-18T15:48:34;0.90;96.30
53422;DHT22;39319;52.944;5.928;2022-12-18T15:51:00;1.00;96.20
53422;DHT22;39319;52.944;5.928;2022-12-18T15:53:32;1.00;96.10
53422;DHT22;39319;52.944;5.928;2022-12-18T15:55:58;1.10;95.90
53422;DHT22;39319;52.944;5.928;2022-12-18T15:58:42;2.00;95.80
53422;DHT22;39319;52.944;5.928;2022-12-18T16:01:09;1.30;95.80
53422;DHT22;39319;52.944;5.928;2022-12-18T16:03:37;2.00;95.90
53422;DHT22;39319;52.944;5.928;2022-12-18T16:06:03;1.90;95.90
53422;DHT22;39319;52.944;5.928;2022-12-18T16:08:29;1.20;95.60
53422;DHT22;39319;52.944;5.928;2022-12-18T16:10:56;1.20;95.70
53422;DHT22;39319;52.944;5.928;2022-12-18T16:13:22;1.10;95.90
53422;DHT22;39319;52.944;5.928;2022-12-18T16:15:50;1.20;95.90
53422;DHT22;39319;52.944;5.928;2022-12-18T16:18:16;1.20;95.80
53422;DHT22;39319;52.944;5.928;2022-12-18T16:20:42;1.10;95.80
53422;DHT22;39319;52.944;5.928;2022-12-18T16:23:09;1.10;95.70
53422;DHT22;39319;52.944;5.928;2022-12-18T16:25:35;1.20;95.80
53422;DHT22;39319;52.944;5.928;2022-12-18T16:28:02;1.40;95.90
53422;DHT22;39319;52.944;5.928;2022-12-18T16:30:30;1.20;95.70
53422;DHT22;39319;52.944;5.928;2022-12-18T16:32:59;1.50;95.80
53422;DHT22;39319;52.944;5.928;2022-12-18T16:35:26;1.20;95.80
53422;DHT22;39319;52.944;5.928;2022-12-18T16:37:52;1.70;96.00
53422;DHT22;39319;52.944;5.928;2022-12-18T16:40:18;1.40;96.00
53422;DHT22;39319;52.944;5.928;2022-12-18T16:42:45;1.10;95.10
53422;DHT22;39319;52.944;5.928;2022-12-18T16:45:15;1.30;95.20
53422;DHT22;39319;52.944;5.928;2022-12-18T16:47:41;1.80;95.50
53422;DHT22;39319;52.944;5.928;2022-12-18T16:50:07;1.30;95.50
53422;DHT22;39319;52.944;5.928;2022-12-18T16:52:34;1.40;95.70
53422;DHT22;39319;52.944;5.928;2022-12-18T16:55:00;1.40;95.40
53422;DHT22;39319;52.944;5.928;2022-12-18T16:57:26;0.90;95.30
53422;DHT22;39319;52.944;5.928;2022-12-18T16:59:52;1.50;95.50
53422;DHT22;39319;52.944;5.928;2022-12-18T17:02:22;2.30;95.50
53422;DHT22;39319;52.944;5.928;2022-12-18T17:04:48;1.50;95.30
53422;DHT22;39319;52.944;5.928;2022-12-18T17:07:14;1.40;95.10
53422;DHT22;39319;52.944;5.928;2022-12-18T17:09:40;1.30;95.30
53422;DHT22;39319;52.944;5.928;2022-12-18T17:12:09;1.20;95.30
53422;DHT22;39319;52.944;5.928;2022-12-18T17:14:35;1.50;95.50